Time;durP1;ratioP1;P1;durP2;ratioP2;P2;SDS_P1;SDS_P2;PMS_P1;PMS_P2;Temp;Humidity;BMP_temperature;BMP_pressure;BME280_temperature;BME280_humidity;BME280_pressure;Samples;Min_cycle;Max_cycle;Signal;HPM_P1;HPM_P2
2022/05/15 00:02:10;;;;;;;;;;;;;;;7.80;100.00;99861.06;6214874;23;19922;-87
2022/05/15 00:04:36;;;;;;;;;;;;;;;7.93;100.00;99866.81;6215513;23;19908;-87
2022/05/15 00:07:01;;;;;;;;;;;;;;;7.23;100.00;99872.38;6212719;23;19920;-85
2022/05/15 00:09:26;;;;;;;;;;;;;;;6.93;100.00;99864.41;6215249;23;20380;-87
2022/05/15 00:11:52;;;;;;;;;;;;;;;6.85;100.00;99866.38;6215347;23;20015;-88
2022/05/15 00:14:17;;;;;;;;;;;;;;;6.79;100.00;99871.78;6188011;23;19920;-87
2022/05/15 00:16:42;;;;;;;;;;;;;;;7.22;100.00;99860.09;6215259;23;19981;-87
2022/05/15 00:19:09;;;;;;;;;;;;;;;7.64;100.00;99859.75;6214967;23;19923;-87
2022/05/15 00:21:36;;;;;;;;;;;;;;;7.72;100.00;99854.25;6213281;23;19912;-88
2022/05/15 00:24:01;;;;;;;;;;;;;;;7.07;100.00;99856.97;6214773;23;20005;-87
2022/05/15 00:26:27;;;;;;;;;;;;;;;7.40;100.00;99850.81;6214788;23;19912;-89
2022/05/15 00:28:52;;;;;;;;;;;;;;;7.77;100.00;99849.69;6214805;23;19923;-89
2022/05/15 00:31:18;;;;;;;;;;;;;;;7.76;100.00;99853.28;6214806;23;19950;-86
2022/05/15 00:33:44;;;;;;;;;;;;;;;7.06;100.00;99854.38;6215121;23;19982;-88
2022/05/15 00:36:09;;;;;;;;;;;;;;;7.07;100.00;99843.81;6213134;23;19920;-87
2022/05/15 00:38:35;;;;;;;;;;;;;;;7.60;100.00;99855.50;6214179;23;20271;-88
2022/05/15 03:33:18;;;;;;;;;;;;;;;5.89;98.97;99799.38;6210454;22;19927;-86
2022/05/15 03:35:44;;;;;;;;;;;;;;;6.50;100.00;99802.31;6215523;23;20323;-86
2022/05/15 03:38:09;;;;;;;;;;;;;;;6.82;100.00;99803.25;6215792;23;19919;-87
2022/05/15 03:40:35;;;;;;;;;;;;;;;6.36;100.00;99811.41;6215921;23;20350;-87
2022/05/15 03:43:00;;;;;;;;;;;;;;;6.10;100.00;99819.13;6215676;23;20295;-87
2022/05/15 03:45:26;;;;;;;;;;;;;;;6.66;100.00;99814.16;6215341;23;19986;-87
2022/05/15 03:47:52;;;;;;;;;;;;;;;6.97;100.00;99813.34;6187659;23;19932;-87
2022/05/15 03:50:18;;;;;;;;;;;;;;;6.55;100.00;99811.81;6215568;23;19915;-89
2022/05/15 03:52:43;;;;;;;;;;;;;;;6.19;100.00;99808.38;6189027;23;19962;-89
2022/05/15 03:55:09;;;;;;;;;;;;;;;6.05;100.00;99802.53;6215515;23;19912;-89
2022/05/15 03:57:35;;;;;;;;;;;;;;;5.96;100.00;99804.50;6215520;23;19912;-90
2022/05/15 04:00:00;;;;;;;;;;;;;;;5.92;100.00;99802.84;6215406;23;20328;-90
2022/05/15 04:02:25;;;;;;;;;;;;;;;5.88;100.00;99810.81;6213650;23;19939;-88
2022/05/15 04:04:51;;;;;;;;;;;;;;;5.82;100.00;99809.19;6215285;23;19967;-89
2022/05/15 04:07:16;;;;;;;;;;;;;;;5.74;99.53;99808.50;6215419;23;19912;-89
2022/05/15 04:09:42;;;;;;;;;;;;;;;5.77;99.03;99808.44;6215298;23;19931;-87
2022/05/15 04:12:08;;;;;;;;;;;;;;;5.96;100.00;99811.50;6215316;23;19915;-93
2022/05/15 04:14:34;;;;;;;;;;;;;;;6.53;100.00;99804.88;6215605;23;19912;-87
2022/05/15 04:16:59;;;;;;;;;;;;;;;6.86;100.00;99812.75;6214038;23;20328;-88
2022/05/15 04:19:24;;;;;;;;;;;;;;;6.27;100.00;99818.69;6215533;23;20290;-87
2022/05/15 04:21:50;;;;;;;;;;;;;;;5.96;100.00;99811.50;6215207;23;19922;-89
2022/05/15 04:24:16;;;;;;;;;;;;;;;5.86;100.00;99810.84;6215183;23;19915;-89
2022/05/15 04:26:42;;;;;;;;;;;;;;;5.83;100.00;99816.19;6188851;23;19943;-90
2022/05/15 04:29:08;;;;;;;;;;;;;;;5.75;100.00;99812.88;6188940;23;19908;-89
2022/05/15 04:31:34;;;;;;;;;;;;;;;5.85;99.59;99814.38;6214902;23;20346;-91
2022/05/15 04:33:59;;;;;;;;;;;;;;;6.30;98.46;99815.97;6186902;23;20338;-94
2022/05/15 04:36:24;;;;;;;;;;;;;;;6.47;96.75;99802.41;6215066;23;19947;-91
2022/05/15 04:38:50;;;;;;;;;;;;;;;6.61;95.98;99810.81;6215418;23;19922;-88
2022/05/15 04:41:15;;;;;;;;;;;;;;;6.50;95.82;99804.97;6215126;23;19912;-88
2022/05/15 04:43:40;;;;;;;;;;;;;;;6.49;95.86;99809.38;6214872;23;19916;-89
2022/05/15 04:46:07;;;;;;;;;;;;;;;6.26;96.02;99815.19;6214890;23;19912;-89
2022/05/15 04:48:38;;;;;;;;;;;;;;;6.40;97.55;99806.97;6213263;23;19912;-90
2022/05/15 04:51:03;;;;;;;;;;;;;;;6.97;100.00;99810.69;6215085;23;19995;-89
2022/05/15 04:53:30;;;;;;;;;;;;;;;7.23;100.00;99814.41;6214925;23;20382;-90
2022/05/15 04:55:55;;;;;;;;;;;;;;;6.62;100.00;99809.03;6214934;23;19947;-89
2022/05/15 04:58:20;;;;;;;;;;;;;;;6.32;100.00;99804.53;6214988;23;19966;-89
2022/05/15 05:00:45;;;;;;;;;;;;;;;6.22;100.00;99804.78;6214582;23;20354;-89
2022/05/15 05:03:11;;;;;;;;;;;;;;;6.09;100.00;99801.59;6213325;23;20011;-89
2022/05/15 05:05:36;;;;;;;;;;;;;;;6.06;99.93;99806.91;6188541;23;19912;-89
2022/05/15 05:08:01;;;;;;;;;;;;;;;6.01;99.49;99804.41;6215176;23;19919;-88
2022/05/15 05:10:26;;;;;;;;;;;;;;;5.94;98.88;99814.16;6214668;23;19911;-88
2022/05/15 05:12:51;;;;;;;;;;;;;;;5.90;98.78;99801.97;6214486;23;20012;-88
2022/05/15 05:15:17;;;;;;;;;;;;;;;5.83;98.58;99810.94;6188132;23;19912;-88
2022/05/15 12:44:44;;;;;;;;;;;;;;;7.77;100.00;99538.47;6214157;23;19931;-88
2022/05/15 12:47:19;;;;;;;;;;;;;;;7.11;100.00;99546.84;6215001;23;19920;-87
2022/05/15 12:49:46;;;;;;;;;;;;;;;7.36;100.00;99536.34;6188330;23;19970;-87
2022/05/15 12:52:16;;;;;;;;;;;;;;;7.71;100.00;99531.63;6215067;23;19912;-89
2022/05/15 12:54:43;;;;;;;;;;;;;;;7.71;100.00;99523.72;6187040;23;19946;-87
2022/05/15 12:57:11;;;;;;;;;;;;;;;7.07;100.00;99525.00;6212715;23;20316;-87
2022/05/15 12:59:38;;;;;;;;;;;;;;;6.83;100.00;99525.78;6213724;23;20320;-90
2022/05/15 13:02:33;;;;;;;;;;;;;;;6.71;100.00;99527.88;6187253;23;19931;-89
2022/05/15 13:05:00;;;;;;;;;;;;;;;7.45;100.00;99524.63;6165210;23;19912;-87
2022/05/15 13:07:26;;;;;;;;;;;;;;;7.72;100.00;99520.19;6187848;23;20311;-91
2022/05/15 13:12:26;;;;;;;;;;;;;;;7.30;100.00;99526.00;6183425;23;19970;-89
2022/05/15 13:14:51;;;;;;;;;;;;;;;7.70;100.00;99514.09;6183340;23;19913;-89
2022/05/15 13:17:24;;;;;;;;;;;;;;;7.89;100.00;99511.66;6185035;23;19919;-87
2022/05/15 13:19:52;;;;;;;;;;;;;;;7.23;100.00;99514.81;6183136;23;19920;-88
2022/05/15 13:22:20;;;;;;;;;;;;;;;7.12;100.00;99511.69;6184718;23;19935;-89
2022/05/15 13:24:46;;;;;;;;;;;;;;;7.67;100.00;99501.00;6184585;23;19916;-87
2022/05/15 13:27:12;;;;;;;;;;;;;;;7.88;100.00;99506.44;6183280;23;19959;-89
2022/05/15 13:29:38;;;;;;;;;;;;;;;7.38;100.00;99497.59;6184589;23;19913;-89
2022/05/15 13:32:04;;;;;;;;;;;;;;;7.06;100.00;99491.66;6184569;23;19916;-88
2022/05/15 13:34:30;;;;;;;;;;;;;;;7.58;100.00;99488.16;6184937;23;20347;-88
2022/05/15 13:36:56;;;;;;;;;;;;;;;7.86;100.00;99497.72;6184642;23;19948;-89
2022/05/15 13:44:52;;;;;;;;;;;;;;;7.90;100.00;99488.78;6186724;23;20338;-89
2022/05/15 13:50:28;;;;;;;;;;;;;;;;;;;;;
2022/05/15 13:53:13;;;;;;;;;;;;;;;7.40;100.00;99472.09;6139250;23;19988;-91
2022/05/15 13:55:39;;;;;;;;;;;;;;;7.82;100.00;99476.72;6163727;23;19920;-87
2022/05/15 13:58:04;;;;;;;;;;;;;;;7.59;100.00;99460.88;6190789;23;20269;-87
2022/05/15 14:00:31;;;;;;;;;;;;;;;7.04;100.00;99466.28;6192851;23;20329;-90
2022/05/15 14:02:59;;;;;;;;;;;;;;;6.91;100.00;99465.84;6188542;23;19960;-88
2022/05/15 14:05:35;;;;;;;;;;;;;;;;;;;;;
2022/05/15 14:08:27;;;;;;;;;;;;;;;6.75;100.00;99468.09;6169837;23;19990;-88
2022/05/15 14:11:05;;;;;;;;;;;;;;;7.12;100.00;99468.66;6186585;23;19920;-86
2022/05/15 14:13:53;;;;;;;;;;;;;;;7.61;100.00;99466.94;6163263;23;19952;-86
2022/05/15 14:16:28;;;;;;;;;;;;;;;7.43;100.00;99460.53;6190140;23;19943;-89
2022/05/15 14:18:53;;;;;;;;;;;;;;;6.98;100.00;99459.44;6191387;23;19913;-89
2022/05/15 14:21:26;;;;;;;;;;;;;;;6.83;100.00;99452.03;6190744;23;19916;-87
2022/05/15 14:23:55;;;;;;;;;;;;;;;7.43;100.00;99442.94;6189673;23;19912;-87
2022/05/15 14:26:23;;;;;;;;;;;;;;;7.69;100.00;99448.22;6160817;23;19920;-87
2022/05/15 14:28:51;;;;;;;;;;;;;;;7.14;100.00;99445.75;6163923;23;19916;-87
2022/05/15 14:31:22;;;;;;;;;;;;;;;6.84;100.00;99445.88;6126435;23;19917;-89
2022/05/15 14:33:47;;;;;;;;;;;;;;;6.72;100.00;99448.00;6112352;23;19912;-86
2022/05/15 14:36:13;;;;;;;;;;;;;;;6.58;100.00;99437.03;6159602;23;20279;-87
2022/05/15 14:38:41;;;;;;;;;;;;;;;6.52;100.00;99443.34;6157041;23;19913;-90
2022/05/15 14:41:06;;;;;;;;;;;;;;;6.46;100.00;99442.69;6157784;23;19940;-92
2022/05/15 14:43:35;;;;;;;;;;;;;;;6.44;100.00;99440.09;6158349;23;19917;-86
2022/05/15 14:46:01;;;;;;;;;;;;;;;6.40;100.00;99432.34;6158058;23;19921;-91
2022/05/15 14:48:38;;;;;;;;;;;;;;;7.01;100.00;99426.88;6158525;23;19912;-88
2022/05/15 14:51:06;;;;;;;;;;;;;;;7.38;100.00;99426.44;6160012;23;19913;-88
2022/05/15 14:53:34;;;;;;;;;;;;;;;7.16;100.00;99422.84;6158256;23;19956;-87
2022/05/15 14:56:11;;;;;;;;;;;;;;;6.69;100.00;99424.38;6158126;23;20245;-86
2022/05/15 14:58:42;;;;;;;;;;;;;;;6.54;100.00;99422.25;6159346;23;19919;-87
2022/05/15 15:01:11;;;;;;;;;;;;;;;6.48;100.00;99415.41;6158317;23;19991;-87
2022/05/15 15:03:37;;;;;;;;;;;;;;;6.40;100.00;99417.44;6159675;23;20003;-90
2022/05/15 15:06:05;;;;;;;;;;;;;;;6.35;100.00;99409.69;6158634;23;19963;-87
2022/05/15 15:08:34;;;;;;;;;;;;;;;6.50;100.00;99412.75;6172106;23;19927;-88
2022/05/15 15:14:11;;;;;;;;;;;;;;;7.39;100.00;99401.81;6156907;23;19922;-90
2022/05/15 15:16:39;;;;;;;;;;;;;;;6.83;100.00;99402.00;6191921;23;19939;-92
2022/05/15 15:19:32;;;;;;;;;;;;;;;6.59;100.00;99398.41;6191469;23;19916;-88
2022/05/15 15:24:43;;;;;;;;;;;;;;;7.44;100.00;99402.50;6216203;22;20003;-89
2022/05/15 15:27:30;;;;;;;;;;;;;;;7.03;100.00;99396.91;6197717;23;19908;-90
2022/05/15 15:30:03;;;;;;;;;;;;;;;6.67;100.00;99405.16;6166468;23;20341;-89
2022/05/15 15:32:31;;;;;;;;;;;;;;;6.55;100.00;99405.56;6161826;23;19985;-89
2022/05/15 15:35:06;;;;;;;;;;;;;;;6.96;100.00;99403.31;6199355;22;19920;-89
2022/05/15 15:40:28;;;;;;;;;;;;;;;;;;;;;
2022/05/15 15:43:23;;;;;;;;;;;;;;;6.72;100.00;99392.69;6226146;23;19935;-90
2022/05/15 15:45:52;;;;;;;;;;;;;;;6.63;100.00;99392.13;6224330;23;19916;-90
2022/05/15 15:48:48;;;;;;;;;;;;;;;6.50;100.00;99389.06;6224964;23;19912;-90
2022/05/15 15:51:52;;;;;;;;;;;;;;;;;;;;;
2022/05/15 15:54:33;;;;;;;;;;;;;;;6.45;100.00;99377.81;6219442;23;19966;-90
2022/05/15 15:57:32;;;;;;;;;;;;;;;7.16;100.00;99375.41;6222704;23;19912;-90
2022/05/15 15:59:57;;;;;;;;;;;;;;;7.51;100.00;99368.84;6223978;23;20355;-89
2022/05/15 16:02:39;;;;;;;;;;;;;;;6.82;100.00;99364.28;6222517;23;19934;-89
2022/05/15 16:05:07;;;;;;;;;;;;;;;7.41;100.00;99364.84;6221265;23;19912;-90
2022/05/15 16:11:01;;;;;;;;;;;;;;;6.95;100.00;99369.97;6192053;23;20331;-93
2022/05/15 16:13:35;;;;;;;;;;;;;;;6.66;100.00;99360.44;6228876;23;19912;-96
2022/05/15 16:16:04;;;;;;;;;;;;;;;6.58;100.00;99351.94;6222194;23;19935;-89
2022/05/15 16:19:00;;;;;;;;;;;;;;;;;;;;;
2022/05/15 16:21:37;;;;;;;;;;;;;;;;;;;;;
2022/05/15 16:31:02;;;;;;;;;;;;;;;;;;;;;
2022/05/15 16:33:23;;;;;;;;;;;;;;;6.94;100.00;99339.31;6155060;23;20343;-88
2022/05/15 16:36:04;;;;;;;;;;;;;;;;;;;;;
2022/05/15 16:39:18;;;;;;;;;;;;;;;7.28;100.00;99335.44;6138829;23;19948;-90
2022/05/15 16:44:35;;;;;;;;;;;;;;;;;;;;;
2022/05/15 16:47:14;;;;;;;;;;;;;;;;;;;;;
2022/05/15 16:49:52;;;;;;;;;;;;;;;;;;;;;
2022/05/15 16:52:25;;;;;;;;;;;;;;;7.25;100.00;99317.13;6193914;23;19958;-88
2022/05/15 16:55:26;;;;;;;;;;;;;;;;;;;;;
2022/05/15 16:58:43;;;;;;;;;;;;;;;;;;;;;
2022/05/15 17:01:00;;;;;;;;;;;;;;;6.57;100.00;99314.22;6185521;23;19916;-92
2022/05/15 17:03:58;;;;;;;;;;;;;;;;;;;;;
2022/05/15 17:15:55;;;;;;;;;;;;;;;;;;;;;
2022/05/15 17:18:24;;;;;;;;;;;;;;;6.66;100.00;99302.53;6070426;23;19945;-89
2022/05/15 17:21:09;;;;;;;;;;;;;;;7.13;100.00;99302.59;6074601;23;19924;-90
2022/05/15 17:24:36;;;;;;;;;;;;;;;7.58;100.00;99303.59;6048340;23;19914;-89
2022/05/15 17:36:35;;;;;;;;;;;;;;;;;;;;;
2022/05/15 17:41:50;;;;;;;;;;;;;;;;;;;;;
2022/05/15 17:48:21;;;;;;;;;;;;;;;;;;;;;
2022/05/15 17:51:05;;;;;;;;;;;;;;;7.38;100.00;99299.91;5985144;24;20005;-90
2022/05/15 17:53:43;;;;;;;;;;;;;;;;;;;;;
2022/05/15 17:56:13;;;;;;;;;;;;;;;6.63;100.00;99292.94;5985541;24;19950;-90
2022/05/15 17:58:52;;;;;;;;;;;;;;;6.57;100.00;99293.16;5986348;24;19941;-91
2022/05/15 18:01:30;;;;;;;;;;;;;;;;;;;;;
2022/05/15 18:04:12;;;;;;;;;;;;;;;7.48;100.00;99292.53;6011119;23;19949;-90
2022/05/15 18:06:57;;;;;;;;;;;;;;;;;;;;;
2022/05/15 18:09:56;;;;;;;;;;;;;;;;;;;;;
2022/05/15 18:13:03;;;;;;;;;;;;;;;6.87;100.00;99293.00;6072262;23;19955;-89
2022/05/15 18:20:33;;;;;;;;;;;;;;;6.91;100.00;99311.28;6190433;23;19924;-88
2022/05/15 18:23:29;;;;;;;;;;;;;;;6.68;100.00;99311.22;6162482;23;19919;-91
2022/05/15 18:25:59;;;;;;;;;;;;;;;6.63;100.00;99314.00;6163375;23;20288;-91
2022/05/15 18:31:31;;;;;;;;;;;;;;;;;;;;;
2022/05/15 18:33:59;;;;;;;;;;;;;;;7.12;100.00;99318.50;6192678;23;19951;-88
2022/05/15 18:36:55;;;;;;;;;;;;;;;6.83;100.00;99328.25;6191769;23;19948;-89
2022/05/15 18:39:31;;;;;;;;;;;;;;;6.64;100.00;99326.28;6077272;23;20338;-89
2022/05/15 18:42:02;;;;;;;;;;;;;;;6.84;100.00;99332.63;6186426;23;19919;-90
2022/05/15 18:44:38;;;;;;;;;;;;;;;7.38;100.00;99334.19;6188210;23;19938;-91
2022/05/15 18:47:38;;;;;;;;;;;;;;;;;;;;;
2022/05/15 18:56:07;;;;;;;;;;;;;;;6.57;100.00;99343.16;6189870;23;19923;-90
2022/05/15 18:58:40;;;;;;;;;;;;;;;6.50;100.00;99344.31;6188698;23;19919;-90
2022/05/15 19:01:44;;;;;;;;;;;;;;;;;;;;;
2022/05/15 19:04:40;;;;;;;;;;;;;;;;;;;;;
2022/05/15 19:07:28;;;;;;;;;;;;;;;;;;;;;
2022/05/15 19:09:59;;;;;;;;;;;;;;;6.67;100.00;99349.00;6193050;23;19947;-91
2022/05/15 19:12:54;;;;;;;;;;;;;;;;;;;;;
2022/05/15 19:15:33;;;;;;;;;;;;;;;6.60;100.00;99350.13;6190656;23;20004;-89
2022/05/15 19:18:21;;;;;;;;;;;;;;;7.23;100.00;99345.31;6165156;23;19916;-90
2022/05/15 19:21:13;;;;;;;;;;;;;;;;;;;;;
2022/05/15 19:24:20;;;;;;;;;;;;;;;;;;;;;
2022/05/15 19:27:10;;;;;;;;;;;;;;;7.20;100.00;99346.28;6192950;23;19912;-90
2022/05/15 19:36:18;;;;;;;;;;;;;;;;;;;;;
2022/05/15 19:39:12;;;;;;;;;;;;;;;7.46;100.00;99370.81;6273473;22;19915;-92
2022/05/15 19:41:53;;;;;;;;;;;;;;;;;;;;;
2022/05/15 19:44:50;;;;;;;;;;;;;;;7.13;100.00;99375.53;6252316;23;20505;-91
2022/05/15 19:47:16;;;;;;;;;;;;;;;7.26;100.00;99382.09;6251239;23;19922;-90
2022/05/15 19:49:59;;;;;;;;;;;;;;;7.69;100.00;99382.28;6252460;23;20286;-91
2022/05/15 19:55:54;;;;;;;;;;;;;;;6.98;100.00;99400.63;6191467;22;19920;-89
2022/05/15 19:58:14;;;;;;;;;;;;;;;6.87;100.00;99398.34;6186972;23;19924;-89
2022/05/15 20:01:07;;;;;;;;;;;;;;;6.79;100.00;99395.97;6191944;23;19934;-90
2022/05/15 20:03:44;;;;;;;;;;;;;;;;;;;;;
2022/05/15 20:12:08;;;;;;;;;;;;;;;6.91;100.00;99397.34;6191356;23;19939;-91
2022/05/15 20:14:40;;;;;;;;;;;;;;;6.79;100.00;99403.03;6178596;23;19979;-91
2022/05/15 20:17:47;;;;;;;;;;;;;;;;;;;;;
2022/05/15 20:20:32;;;;;;;;;;;;;;;;;;;;;
2022/05/15 20:23:26;;;;;;;;;;;;;;;7.28;100.00;99406.59;6065806;23;20004;-90
2022/05/15 20:26:03;;;;;;;;;;;;;;;6.89;100.00;99404.44;6045565;23;19933;-92
2022/05/15 20:29:07;;;;;;;;;;;;;;;6.76;100.00;99408.38;6074762;23;19913;-93
2022/05/15 20:31:52;;;;;;;;;;;;;;;;;;;;;
2022/05/15 20:34:36;;;;;;;;;;;;;;;6.88;100.00;99423.78;6061615;23;19914;-93
2022/05/15 20:37:27;;;;;;;;;;;;;;;7.45;100.00;99427.06;6074287;23;19942;-95
2022/05/15 20:40:04;;;;;;;;;;;;;;;8.53;100.00;99421.25;6065182;23;20356;-81
2022/05/15 20:42:31;;;;;;;;;;;;;;;7.76;100.00;99424.19;6072329;23;20141;-89
2022/05/15 20:44:56;;;;;;;;;;;;;;;7.93;100.00;99425.34;6093497;23;19919;-90
2022/05/15 20:47:24;;;;;;;;;;;;;;;8.01;100.00;99433.84;6167392;23;19913;-90
2022/05/15 20:49:52;;;;;;;;;;;;;;;7.28;100.00;99432.97;6168332;23;19935;-91
2022/05/15 20:52:17;;;;;;;;;;;;;;;7.33;100.00;99441.56;6169460;23;19956;-89
2022/05/15 20:54:43;;;;;;;;;;;;;;;7.80;100.00;99436.38;6190451;23;19927;-88
2022/05/15 20:57:10;;;;;;;;;;;;;;;7.88;100.00;99438.72;6192801;23;19967;-89
2022/05/15 20:59:45;;;;;;;;;;;;;;;7.17;100.00;99448.28;6191853;23;19919;-91
2022/05/15 21:02:11;;;;;;;;;;;;;;;7.37;100.00;99445.81;6195593;23;19943;-89
2022/05/15 21:04:36;;;;;;;;;;;;;;;7.86;100.00;99455.50;6193868;23;19924;-88
2022/05/15 21:07:02;;;;;;;;;;;;;;;7.86;100.00;99450.25;6190117;23;19919;-88
2022/05/15 21:09:27;;;;;;;;;;;;;;;7.20;100.00;99454.31;6190697;23;19912;-88
2022/05/15 21:11:52;;;;;;;;;;;;;;;7.67;100.00;99448.25;6192926;23;20383;-92
2022/05/15 21:14:23;;;;;;;;;;;;;;;7.93;100.00;99442.03;6187970;23;19919;-95
2022/05/15 21:16:56;;;;;;;;;;;;;;;7.43;100.00;99452.63;6189555;23;19958;-89
2022/05/15 21:19:21;;;;;;;;;;;;;;;7.02;100.00;99458.44;6190890;23;19951;-88
2022/05/15 21:21:46;;;;;;;;;;;;;;;7.55;100.00;99452.22;6189751;23;19923;-91
2022/05/15 21:24:12;;;;;;;;;;;;;;;7.94;100.00;99453.44;6191016;23;19917;-94
2022/05/15 21:26:39;;;;;;;;;;;;;;;7.90;100.00;99452.72;6161959;23;19920;-91
2022/05/15 21:29:05;;;;;;;;;;;;;;;7.26;100.00;99455.88;6188345;22;19928;-90
2022/05/15 21:31:32;;;;;;;;;;;;;;;7.75;100.00;99454.13;6192191;23;19998;-88
2022/05/15 21:34:01;;;;;;;;;;;;;;;8.06;100.00;99449.47;6167660;23;19927;-87
2022/05/15 21:36:28;;;;;;;;;;;;;;;7.71;100.00;99457.78;6194172;23;19916;-89
2022/05/15 21:44:39;;;;;;;;;;;;;;;8.15;100.00;99447.38;6131980;23;19919;-88
2022/05/15 21:47:06;;;;;;;;;;;;;;;7.33;100.00;99441.56;6096854;23;19916;-87
2022/05/15 21:49:39;;;;;;;;;;;;;;;7.05;100.00;99450.44;6195663;23;19912;-88
2022/05/15 21:52:23;;;;;;;;;;;;;;;6.98;100.00;99445.41;6126752;23;20035;-88
2022/05/15 21:54:54;;;;;;;;;;;;;;;7.48;100.00;99441.94;6136489;23;19913;-89
2022/05/15 21:57:24;;;;;;;;;;;;;;;7.91;100.00;99445.66;6105584;23;19948;-87
2022/05/15 22:00:01;;;;;;;;;;;;;;;7.74;100.00;99447.13;6065750;23;19910;-94
2022/05/15 22:02:35;;;;;;;;;;;;;;;7.15;100.00;99448.34;6065605;23;20294;-93
2022/05/15 22:05:01;;;;;;;;;;;;;;;7.67;100.00;99445.63;6066724;23;20311;-90
2022/05/15 22:07:28;;;;;;;;;;;;;;;7.96;100.00;99438.41;6066305;23;20044;-93
2022/05/15 22:10:03;;;;;;;;;;;;;;;7.44;100.00;99444.69;6067314;23;19913;-90
2022/05/15 22:12:28;;;;;;;;;;;;;;;7.07;100.00;99440.69;6065615;23;19924;-91
2022/05/15 22:14:54;;;;;;;;;;;;;;;6.95;100.00;99438.47;6066890;23;19917;-90
2022/05/15 22:17:20;;;;;;;;;;;;;;;7.42;100.00;99432.50;6067381;23;19940;-91
2022/05/15 22:19:46;;;;;;;;;;;;;;;7.81;100.00;99431.94;6105302;23;20321;-88
2022/05/15 22:22:14;;;;;;;;;;;;;;;7.72;100.00;99433.16;6100156;23;19912;-88
2022/05/15 22:24:40;;;;;;;;;;;;;;;7.16;100.00;99443.91;6161457;23;20311;-88
2022/05/15 22:27:05;;;;;;;;;;;;;;;7.69;100.00;99443.81;6182679;23;20335;-89
2022/05/15 22:29:31;;;;;;;;;;;;;;;7.97;100.00;99442.78;6184180;23;19943;-89
2022/05/15 22:31:58;;;;;;;;;;;;;;;7.50;100.00;99443.63;6185343;23;19916;-90
2022/05/15 22:34:29;;;;;;;;;;;;;;;7.14;100.00;99438.69;6184474;23;19908;-91
2022/05/15 22:36:55;;;;;;;;;;;;;;;7.73;100.00;99432.22;6159438;23;20292;-90
2022/05/15 22:39:20;;;;;;;;;;;;;;;7.99;100.00;99433.03;6183755;23;19967;-88
2022/05/15 22:41:46;;;;;;;;;;;;;;;7.49;100.00;99436.59;6184222;23;19917;-88
2022/05/15 22:44:12;;;;;;;;;;;;;;;7.21;100.00;99432.31;6185525;23;19999;-88
2022/05/15 22:46:38;;;;;;;;;;;;;;;7.78;100.00;99432.91;6159821;23;19917;-86
2022/05/15 22:49:03;;;;;;;;;;;;;;;8.03;100.00;99426.72;6185306;23;20333;-90
2022/05/15 22:51:30;;;;;;;;;;;;;;;7.45;100.00;99438.50;6186032;23;19913;-88
2022/05/15 22:53:55;;;;;;;;;;;;;;;7.05;100.00;99437.25;6184847;23;19912;-88
2022/05/15 22:56:20;;;;;;;;;;;;;;;7.26;100.00;99440.06;6183473;23;20281;-87
2022/05/15 22:58:46;;;;;;;;;;;;;;;7.74;100.00;99433.94;6185196;23;19912;-90
2022/05/15 23:01:11;;;;;;;;;;;;;;;7.96;100.00;99434.00;6185334;23;19986;-87
2022/05/15 23:03:37;;;;;;;;;;;;;;;7.30;100.00;99439.03;6185073;23;19916;-89
2022/05/15 23:08:46;;;;;;;;;;;;;;;7.88;100.00;99432.56;6186340;23;20539;-92
2022/05/15 23:11:12;;;;;;;;;;;;;;;7.91;100.00;99437.72;6159048;23;19917;-87
2022/05/15 23:13:37;;;;;;;;;;;;;;;7.23;100.00;99432.28;6185204;23;19948;-86
2022/05/15 23:16:03;;;;;;;;;;;;;;;7.77;100.00;99431.19;6184755;23;19912;-88
2022/05/15 23:18:28;;;;;;;;;;;;;;;7.99;100.00;99423.34;6185003;23;19920;-88
2022/05/15 23:20:55;;;;;;;;;;;;;;;7.52;100.00;99423.31;6185400;23;19916;-90
2022/05/15 23:23:20;;;;;;;;;;;;;;;7.09;100.00;99432.75;6185228;23;19958;-89
2022/05/15 23:25:45;;;;;;;;;;;;;;;6.98;100.00;99426.97;6185375;23;20431;-88
2022/05/15 23:30:59;;;;;;;;;;;;;;;7.73;100.00;99434.00;6189249;22;20341;-94
2022/05/15 23:33:34;;;;;;;;;;;;;;;;;;;;;
2022/05/15 23:36:00;;;;;;;;;;;;;;;7.22;100.00;99425.28;6185410;23;20015;-90
2022/05/15 23:38:25;;;;;;;;;;;;;;;7.61;100.00;99422.09;6184179;23;20276;-89
2022/05/15 23:40:50;;;;;;;;;;;;;;;7.96;100.00;99420.81;6186265;23;19916;-87
2022/05/15 23:43:16;;;;;;;;;;;;;;;7.80;100.00;99415.25;6185637;23;19920;-92
2022/05/15 23:45:41;;;;;;;;;;;;;;;7.14;100.00;99416.78;6185848;23;19990;-89
2022/05/15 23:48:06;;;;;;;;;;;;;;;6.97;100.00;99412.06;6183554;23;19960;-88
2022/05/15 23:50:32;;;;;;;;;;;;;;;7.35;100.00;99407.25;6185569;23;19995;-88
2022/05/15 23:52:57;;;;;;;;;;;;;;;7.78;100.00;99416.22;6185193;23;20312;-87
2022/05/15 23:55:22;;;;;;;;;;;;;;;7.88;100.00;99408.81;6185109;23;19923;-89
2022/05/15 23:57:51;;;;;;;;;;;;;;;7.17;100.00;99414.88;6183868;23;20006;-90
